KCEY

Kyle-Oakley Field Airport

Murray, Kentucky, USA
METAR KCEY 222035Z AUTO 19006KT 10SM CLR 18/01 A3018 RMK AO1
Observed Flight Rules
Oct-22 @ 20:35 UTC (14 minutes ago) Visual Flight Rules
Wind Visibility Clouds
190° at 6 knots 10 miles
  • Clear skies
Temperatures Readings
Current 18°C / 64°F
Dewpoint 1°C / 34°F
Humidity 32%
Altimeter 30.18" Hg
Pressure 1022 hPa
Elevation 176
METAR KCEY 222035Z AUTO 19006KT 10SM CLR 18/01 A3018 RMK AO1
Observed Flight Rules
Oct-22 @ 20:35 UTC
(14 minutes ago)
VFR
Wind Visibility
190° at 6 knots 10 miles
Clouds
  • Clear skies
Temperature Dewpoint
18°C / 64°F 1°C / 34°F
Humidity Altimeter Pressure
32% 30.18" Hg 1022 hPa